Time;durP1;ratioP1;P1;durP2;ratioP2;P2;SDS_P1;SDS_P2;PMS_P1;PMS_P2;Temp;Humidity;BMP_temperature;BMP_pressure;BME280_temperature;BME280_humidity;BME280_pressure;Samples;Min_cycle;Max_cycle;Signal;HPM_P1;HPM_P2
2023/05/10 00:01:15;;;;;;;1.57;1.47;;;15.90;99.90;;;;;;5022523;28;20181;-77
2023/05/10 00:03:41;;;;;;;2.27;1.67;;;15.80;99.90;;;;;;5022999;28;20186;-74
2023/05/10 00:06:06;;;;;;;2.77;1.50;;;15.90;99.90;;;;;;5019034;28;22078;-76
2023/05/10 00:08:32;;;;;;;1.80;1.60;;;15.90;99.90;;;;;;5021685;28;20220;-78
2023/05/10 00:10:58;;;;;;;1.77;1.67;;;15.90;99.90;;;;;;5019941;28;20181;-78
2023/05/10 00:13:24;;;;;;;1.97;1.70;;;15.90;99.90;;;;;;5020794;28;20195;-78
2023/05/10 00:15:50;;;;;;;1.77;1.50;;;15.90;99.90;;;;;;5005984;28;20176;-78
2023/05/10 00:18:16;;;;;;;1.67;1.50;;;15.90;99.90;;;;;;5021207;28;20195;-78
2023/05/10 00:20:42;;;;;;;1.83;1.50;;;15.90;99.90;;;;;;4992161;28;20191;-78
2023/05/10 00:23:07;;;;;;;1.50;1.40;;;15.90;99.90;;;;;;5004855;28;20215;-77
2023/05/10 00:25:33;;;;;;;2.83;1.47;;;15.90;99.90;;;;;;5023016;28;20190;-75
2023/05/10 00:28:01;;;;;;;1.43;1.33;;;15.90;99.90;;;;;;5021236;28;20197;-78
2023/05/10 00:30:26;;;;;;;1.40;1.30;;;15.90;99.90;;;;;;5020720;28;20171;-78
2023/05/10 00:32:52;;;;;;;2.17;1.40;;;15.90;99.90;;;;;;5022089;28;20818;-78
2023/05/10 00:35:18;;;;;;;1.50;1.30;;;15.90;99.90;;;;;;5017164;28;20184;-78
2023/05/10 00:37:44;;;;;;;1.70;1.60;;;15.90;99.90;;;;;;5021536;28;20188;-76
2023/05/10 00:40:10;;;;;;;1.67;1.57;;;15.80;99.90;;;;;;5021350;28;20217;-77
2023/05/10 00:42:36;;;;;;;1.50;1.27;;;15.80;99.90;;;;;;5005734;28;20703;-77
2023/05/10 00:45:02;;;;;;;1.60;1.40;;;15.80;99.90;;;;;;5018337;28;20186;-78
2023/05/10 00:47:28;;;;;;;1.93;1.50;;;15.80;99.90;;;;;;5018500;28;20734;-77
2023/05/10 00:49:55;;;;;;;2.40;1.60;;;15.80;99.90;;;;;;5017898;28;20211;-78
2023/05/10 00:52:23;;;;;;;1.40;1.30;;;15.70;99.90;;;;;;5019699;28;20626;-77
2023/05/10 00:54:51;;;;;;;1.60;1.50;;;15.70;99.90;;;;;;5018447;28;20190;-78
2023/05/10 00:57:17;;;;;;;1.60;1.50;;;15.70;99.90;;;;;;5019087;28;20188;-78
2023/05/10 00:59:44;;;;;;;2.17;1.57;;;15.70;99.90;;;;;;5020218;28;20206;-78
2023/05/10 01:02:10;;;;;;;1.60;1.50;;;15.70;99.90;;;;;;5018941;28;20199;-78
2023/05/10 01:04:37;;;;;;;1.87;1.50;;;15.60;99.90;;;;;;5020345;28;20216;-78
2023/05/10 01:07:03;;;;;;;1.70;1.60;;;15.70;99.90;;;;;;5024034;28;20237;-78
2023/05/10 01:09:29;;;;;;;1.53;1.40;;;15.70;99.90;;;;;;5018663;28;20889;-77
2023/05/10 01:11:55;;;;;;;2.03;1.60;;;15.70;99.90;;;;;;5018537;28;20198;-78
2023/05/10 01:14:22;;;;;;;2.70;1.90;;;15.60;99.90;;;;;;5016615;28;20215;-78
2023/05/10 01:16:49;;;;;;;3.77;1.80;;;15.70;99.90;;;;;;5020558;28;20198;-78
2023/05/10 01:19:30;;;;;;;2.17;1.97;;;15.70;99.90;;;;;;5019597;28;20221;-77
2023/05/10 01:22:01;;;;;;;2.67;1.80;;;15.60;99.90;;;;;;5019470;28;20226;-78
2023/05/10 01:24:58;;;;;;;2.03;1.93;;;15.60;99.90;;;;;;5016968;28;20187;-78
2023/05/10 01:27:45;;;;;;;2.10;2.00;;;15.60;99.90;;;;;;5017031;28;20265;-78
2023/05/10 01:30:44;;;;;;;3.23;1.87;;;15.60;99.90;;;;;;5016584;28;20651;-78
2023/05/10 01:33:34;;;;;;;2.30;2.00;;;15.60;99.90;;;;;;5018605;28;20282;-78
2023/05/10 01:36:19;;;;;;;3.30;2.10;;;15.60;99.90;;;;;;5015323;28;20179;-77
2023/05/10 01:38:52;;;;;;;2.27;2.07;;;15.60;99.90;;;;;;5021238;28;20646;-78
2023/05/10 01:41:27;;;;;;;3.33;2.00;;;15.60;99.90;;;;;;5036127;28;21466;-78
2023/05/10 01:44:00;;;;;;;2.83;1.80;;;15.60;99.90;;;;;;5019800;28;20178;-78
2023/05/10 01:46:36;;;;;;;3.17;1.80;;;15.60;99.90;;;;;;5018820;28;20179;-78
2023/05/10 01:49:07;;;;;;;1.80;1.70;;;15.60;99.90;;;;;;5021553;28;20194;-78
2023/05/10 01:51:41;;;;;;;1.90;1.80;;;15.60;99.90;;;;;;5018583;28;20217;-78
2023/05/10 01:54:08;;;;;;;3.33;2.10;;;15.60;99.90;;;;;;5017184;28;20191;-78
2023/05/10 01:56:37;;;;;;;2.33;2.10;;;15.60;99.90;;;;;;5028297;28;20187;-78
2023/05/10 01:59:07;;;;;;;3.33;2.03;;;15.50;99.90;;;;;;5028373;28;20186;-78
2023/05/10 02:01:34;;;;;;;1.80;1.70;;;15.50;99.90;;;;;;5023910;28;20202;-77
2023/05/10 02:04:01;;;;;;;2.27;2.03;;;15.50;99.90;;;;;;5012425;28;20187;-78
2023/05/10 02:06:28;;;;;;;2.47;1.93;;;15.50;99.90;;;;;;5015999;28;20198;-78
2023/05/10 02:08:55;;;;;;;5.43;2.27;;;15.50;99.90;;;;;;5015227;28;20565;-78
2023/05/10 02:11:22;;;;;;;2.67;2.40;;;15.60;99.90;;;;;;5001190;28;20181;-77
2023/05/10 02:13:51;;;;;;;2.50;2.30;;;15.50;99.90;;;;;;5019705;28;21760;-77
2023/05/10 02:16:21;;;;;;;4.40;2.47;;;15.50;99.90;;;;;;5034649;28;20264;-76
2023/05/10 02:18:49;;;;;;;2.73;2.50;;;15.50;99.90;;;;;;5016671;28;20551;-78
2023/05/10 02:21:16;;;;;;;4.10;2.83;;;15.50;99.90;;;;;;5013037;28;20226;-78
2023/05/10 02:23:44;;;;;;;2.40;2.20;;;15.50;99.90;;;;;;5012173;28;20257;-78
2023/05/10 02:26:13;;;;;;;3.10;2.33;;;15.40;99.90;;;;;;5011867;28;20248;-78
2023/05/10 02:28:40;;;;;;;3.70;2.30;;;15.40;99.90;;;;;;5019361;28;20202;-78
2023/05/10 02:31:06;;;;;;;3.90;2.50;;;15.40;99.90;;;;;;5013414;28;20653;-78
2023/05/10 02:33:33;;;;;;;5.13;2.40;;;15.40;99.90;;;;;;4995312;28;20183;-78
2023/05/10 02:36:01;;;;;;;2.20;2.00;;;15.40;99.90;;;;;;5013705;28;20603;-78
2023/05/10 02:38:27;;;;;;;2.37;2.17;;;15.40;99.90;;;;;;4999402;28;20240;-78
2023/05/10 02:40:55;;;;;;;2.43;2.13;;;15.40;99.90;;;;;;5013079;28;20207;-78
2023/05/10 02:43:23;;;;;;;2.30;1.97;;;15.40;99.90;;;;;;5021456;28;20203;-77
2023/05/10 02:45:49;;;;;;;2.13;1.90;;;15.40;99.90;;;;;;5030862;28;20281;-78
2023/05/10 02:48:16;;;;;;;2.27;2.07;;;15.40;99.90;;;;;;5031687;28;20266;-78
2023/05/10 02:50:44;;;;;;;2.17;2.00;;;15.40;99.90;;;;;;5030681;28;20182;-78
2023/05/10 02:53:15;;;;;;;1.83;1.60;;;15.40;99.90;;;;;;5014968;28;20199;-77
2023/05/10 02:55:44;;;;;;;2.10;1.90;;;15.40;99.90;;;;;;5012531;28;20738;-78
2023/05/10 02:58:11;;;;;;;1.53;1.43;;;15.40;99.90;;;;;;5031853;28;20240;-77
2023/05/10 03:00:36;;;;;;;1.90;1.80;;;15.40;99.90;;;;;;5015073;28;20594;-78
2023/05/10 03:03:02;;;;;;;3.47;1.57;;;15.40;99.90;;;;;;5010787;28;20199;-78
2023/05/10 03:05:28;;;;;;;1.70;1.60;;;15.40;99.90;;;;;;5011392;28;20533;-78
2023/05/10 03:07:55;;;;;;;1.73;1.63;;;15.40;99.90;;;;;;5019140;28;20559;-78
2023/05/10 03:10:27;;;;;;;1.77;1.67;;;15.40;99.90;;;;;;5011579;28;20211;-78
2023/05/10 03:13:35;;;;;;;2.20;1.80;;;15.30;99.90;;;;;;5027022;28;20191;-78
2023/05/10 03:16:08;;;;;;;1.97;1.80;;;15.30;99.90;;;;;;5018812;28;20209;-77
2023/05/10 03:18:39;;;;;;;2.30;1.83;;;15.30;99.90;;;;;;5012933;28;20183;-78
2023/05/10 03:21:12;;;;;;;2.93;1.80;;;15.30;99.90;;;;;;5012395;28;20189;-78
2023/05/10 03:23:41;;;;;;;1.90;1.80;;;15.30;99.90;;;;;;5010721;28;20193;-79
2023/05/10 03:26:08;;;;;;;2.13;1.70;;;15.20;99.90;;;;;;5013465;28;20186;-75
2023/05/10 03:28:35;;;;;;;2.00;1.80;;;15.20;99.90;;;;;;5018865;28;20822;-78
2023/05/10 03:31:05;;;;;;;2.83;2.00;;;15.30;99.90;;;;;;5001420;28;20206;-78
2023/05/10 03:33:32;;;;;;;1.87;1.70;;;15.30;99.90;;;;;;5014555;28;20204;-78
2023/05/10 03:35:59;;;;;;;2.00;1.90;;;15.30;99.90;;;;;;5016902;28;20672;-78
2023/05/10 03:38:25;;;;;;;2.00;1.83;;;15.30;99.90;;;;;;5014544;28;20191;-78
2023/05/10 03:40:51;;;;;;;2.10;1.80;;;15.20;99.90;;;;;;5015549;28;20201;-78
2023/05/10 03:43:16;;;;;;;3.10;2.00;;;15.20;99.90;;;;;;5016185;28;20198;-78
2023/05/10 03:45:42;;;;;;;2.50;2.10;;;15.30;99.90;;;;;;5017456;28;20764;-78
2023/05/10 03:48:08;;;;;;;2.67;2.47;;;15.20;99.90;;;;;;4998749;28;20225;-78
2023/05/10 03:50:33;;;;;;;2.53;2.33;;;15.30;99.90;;;;;;5016721;28;20190;-78
2023/05/10 03:52:59;;;;;;;4.00;2.50;;;15.20;99.90;;;;;;5013635;28;20194;-77
2023/05/10 03:55:27;;;;;;;3.80;3.00;;;15.20;99.90;;;;;;5016514;28;20186;-77
2023/05/10 03:57:53;;;;;;;2.60;2.40;;;15.20;99.90;;;;;;5019954;28;20171;-78
2023/05/10 04:00:21;;;;;;;2.70;2.50;;;15.20;99.90;;;;;;5000947;28;20182;-78
2023/05/10 04:02:50;;;;;;;4.90;2.67;;;15.20;99.90;;;;;;5017700;28;20207;-77
2023/05/10 04:05:18;;;;;;;2.93;2.47;;;15.20;99.90;;;;;;5014729;28;20236;-77
2023/05/10 04:07:44;;;;;;;3.73;2.57;;;15.20;99.90;;;;;;5016262;28;20800;-78
2023/05/10 04:10:11;;;;;;;3.67;2.63;;;15.20;99.90;;;;;;5017459;28;21836;-78
2023/05/10 04:12:36;;;;;;;5.23;3.27;;;15.10;99.90;;;;;;5019312;28;20206;-78
2023/05/10 04:15:03;;;;;;;4.17;3.00;;;15.10;99.90;;;;;;5016028;28;20186;-78
2023/05/10 04:17:29;;;;;;;2.93;2.73;;;15.10;99.90;;;;;;5020903;28;20684;-75
2023/05/10 04:19:55;;;;;;;2.90;2.70;;;15.20;99.90;;;;;;5032741;28;20207;-78
2023/05/10 04:22:21;;;;;;;3.10;2.90;;;15.20;99.90;;;;;;5013879;28;20344;-78
2023/05/10 04:24:47;;;;;;;3.23;2.93;;;15.20;99.90;;;;;;5015598;28;20266;-78
2023/05/10 04:27:12;;;;;;;3.47;2.70;;;15.20;99.90;;;;;;5020506;28;20183;-77
2023/05/10 04:29:38;;;;;;;3.83;2.50;;;15.20;99.90;;;;;;5008908;28;20208;-78
2023/05/10 04:32:04;;;;;;;2.73;2.37;;;15.20;99.90;;;;;;5026372;28;20241;-78
2023/05/10 04:34:30;;;;;;;2.77;2.50;;;15.10;99.90;;;;;;5022842;28;20175;-78
2023/05/10 04:36:56;;;;;;;3.00;2.70;;;15.10;99.90;;;;;;5019241;28;20194;-78
2023/05/10 04:39:21;;;;;;;3.93;2.60;;;15.20;99.90;;;;;;5019104;28;20187;-77
2023/05/10 04:41:47;;;;;;;3.50;2.20;;;15.10;99.90;;;;;;5023082;28;20210;-77
2023/05/10 04:44:13;;;;;;;2.50;2.30;;;15.10;99.90;;;;;;5023150;28;20275;-78
2023/05/10 04:46:38;;;;;;;2.63;2.30;;;15.10;99.90;;;;;;5023871;28;20210;-78
2023/05/10 04:49:04;;;;;;;2.47;2.27;;;15.10;99.90;;;;;;5021807;28;20677;-77
2023/05/10 04:51:31;;;;;;;3.80;2.40;;;15.10;99.90;;;;;;5020995;28;20194;-76
2023/05/10 04:53:56;;;;;;;5.40;2.70;;;15.10;99.90;;;;;;5019701;28;20182;-78
2023/05/10 04:56:22;;;;;;;4.10;2.10;;;15.10;99.90;;;;;;5018069;28;20270;-77
2023/05/10 04:58:48;;;;;;;2.37;2.20;;;15.10;99.90;;;;;;5019050;28;20674;-78
2023/05/10 05:01:13;;;;;;;2.37;2.17;;;15.20;99.90;;;;;;5006654;28;20658;-78
2023/05/10 05:03:39;;;;;;;2.70;2.20;;;15.10;99.90;;;;;;5025072;28;20182;-78
2023/05/10 05:06:05;;;;;;;2.50;2.30;;;15.10;99.90;;;;;;5014536;28;20183;-78
2023/05/10 05:08:31;;;;;;;2.40;2.20;;;15.10;99.90;;;;;;5024498;28;20297;-77
2023/05/10 05:10:56;;;;;;;2.43;2.20;;;15.10;99.90;;;;;;5024180;28;20220;-76
2023/05/10 05:13:22;;;;;;;3.87;2.40;;;15.10;99.90;;;;;;5016573;28;20206;-78
2023/05/10 05:15:48;;;;;;;2.97;2.50;;;15.10;99.90;;;;;;5012980;28;20553;-78
2023/05/10 05:18:14;;;;;;;2.70;2.50;;;15.10;99.90;;;;;;5013872;28;20175;-78
2023/05/10 05:20:39;;;;;;;3.23;2.57;;;15.10;99.90;;;;;;5005944;28;20654;-78
2023/05/10 05:23:05;;;;;;;3.60;2.80;;;15.20;99.90;;;;;;5021601;28;20244;-77
2023/05/10 05:25:31;;;;;;;2.90;2.57;;;15.20;99.90;;;;;;5018063;28;20628;-77
2023/05/10 05:27:57;;;;;;;2.43;2.23;;;15.30;99.90;;;;;;5023980;28;20175;-78
2023/05/10 05:30:22;;;;;;;2.70;2.50;;;15.30;99.90;;;;;;5024325;28;20202;-78
2023/05/10 05:32:48;;;;;;;3.50;2.43;;;15.30;99.90;;;;;;5024154;28;20199;-78
2023/05/10 05:35:14;;;;;;;3.70;2.50;;;15.30;99.90;;;;;;5027771;28;20237;-77
2023/05/10 05:37:40;;;;;;;4.00;2.70;;;15.40;99.90;;;;;;5025529;28;20662;-78
2023/05/10 05:40:06;;;;;;;2.93;2.70;;;15.30;99.90;;;;;;5021037;28;20187;-79
2023/05/10 05:42:32;;;;;;;3.10;2.70;;;15.30;99.90;;;;;;5004545;28;20253;-78
2023/05/10 05:44:58;;;;;;;3.70;2.97;;;15.40;99.90;;;;;;4995985;28;20190;-77
2023/05/10 05:47:23;;;;;;;3.30;2.77;;;15.30;99.90;;;;;;5012728;28;20601;-77
2023/05/10 05:49:49;;;;;;;3.10;2.63;;;15.30;99.90;;;;;;4973054;28;20212;-79
2023/05/10 05:52:15;;;;;;;3.20;2.90;;;15.30;99.90;;;;;;5025759;28;20199;-78
2023/05/10 05:54:40;;;;;;;3.53;2.73;;;15.40;99.90;;;;;;5023020;28;20184;-78
2023/05/10 05:57:07;;;;;;;2.77;2.57;;;15.40;99.90;;;;;;5017001;28;20310;-78
2023/05/10 05:59:33;;;;;;;3.30;2.90;;;15.40;99.90;;;;;;5022734;28;20293;-78
2023/05/10 06:01:58;;;;;;;3.50;3.20;;;15.40;99.90;;;;;;5022966;28;20686;-77
2023/05/10 06:04:24;;;;;;;3.60;3.30;;;15.40;99.90;;;;;;5022068;28;20186;-79
2023/05/10 06:06:50;;;;;;;3.40;3.10;;;15.40;99.90;;;;;;5004158;28;20192;-76
2023/05/10 06:09:15;;;;;;;3.33;3.03;;;15.40;99.90;;;;;;5029207;28;20283;-76
2023/05/10 06:11:41;;;;;;;4.50;3.40;;;15.40;99.90;;;;;;5013536;28;20222;-78
2023/05/10 06:14:07;;;;;;;6.30;3.50;;;15.40;99.90;;;;;;5018825;28;20226;-79
2023/05/10 06:16:34;;;;;;;4.23;3.73;;;15.40;99.90;;;;;;5010054;28;20215;-78
2023/05/10 06:19:00;;;;;;;3.97;3.57;;;15.30;99.90;;;;;;5013439;28;20527;-78
2023/05/10 06:21:25;;;;;;;4.10;3.63;;;15.30;99.90;;;;;;5011477;28;20213;-78
2023/05/10 06:23:51;;;;;;;4.10;3.70;;;15.40;99.90;;;;;;5011509;28;20200;-75
2023/05/10 06:26:17;;;;;;;3.90;3.60;;;15.40;99.90;;;;;;5011078;28;20285;-79
2023/05/10 06:28:43;;;;;;;3.60;3.30;;;15.60;99.90;;;;;;5011619;28;20244;-78
2023/05/10 06:31:08;;;;;;;5.30;4.37;;;15.70;99.90;;;;;;5011809;28;20214;-79
2023/05/10 06:33:35;;;;;;;4.43;4.13;;;15.70;99.90;;;;;;4994218;28;20317;-79
2023/05/10 06:36:00;;;;;;;4.13;3.77;;;15.80;99.90;;;;;;5009382;28;20187;-78
2023/05/10 06:38:26;;;;;;;5.87;3.73;;;15.80;99.90;;;;;;5007858;28;20191;-79
2023/05/10 06:40:52;;;;;;;4.27;3.87;;;15.90;99.90;;;;;;5007781;28;20187;-78
2023/05/10 06:43:18;;;;;;;4.30;3.90;;;15.90;99.90;;;;;;5005469;28;20803;-77
2023/05/10 06:45:43;;;;;;;3.83;3.40;;;16.00;99.90;;;;;;5001504;28;20226;-80
2023/05/10 06:48:09;;;;;;;3.87;3.47;;;16.00;99.90;;;;;;5006132;28;20267;-80
2023/05/10 06:50:35;;;;;;;4.03;3.47;;;16.10;99.90;;;;;;4991858;28;20237;-79
2023/05/10 06:53:03;;;;;;;5.50;3.93;;;16.10;99.90;;;;;;4991922;28;20282;-79
2023/05/10 06:55:29;;;;;;;4.07;3.53;;;16.10;99.90;;;;;;5008081;28;20184;-80
2023/05/10 06:57:55;;;;;;;4.20;3.80;;;16.10;99.90;;;;;;5007524;28;20672;-80
2023/05/10 07:00:21;;;;;;;5.20;4.33;;;16.10;99.90;;;;;;4999693;28;20190;-78
2023/05/10 07:02:47;;;;;;;4.87;4.47;;;16.10;99.90;;;;;;5008286;28;20203;-79
2023/05/10 07:05:13;;;;;;;6.30;3.60;;;16.10;99.90;;;;;;5011214;28;20206;-78
2023/05/10 07:07:39;;;;;;;4.57;3.90;;;16.10;99.90;;;;;;5010883;28;20198;-80
2023/05/10 07:10:05;;;;;;;4.70;3.77;;;16.10;99.90;;;;;;5010689;28;20265;-79
2023/05/10 07:12:31;;;;;;;7.40;4.13;;;16.10;99.90;;;;;;5010526;28;20207;-79
2023/05/10 07:14:57;;;;;;;4.50;4.10;;;16.00;99.90;;;;;;5003772;28;20179;-79
2023/05/10 07:17:23;;;;;;;4.80;4.30;;;16.10;99.90;;;;;;5008370;28;20229;-79
2023/05/10 07:19:49;;;;;;;4.70;4.30;;;16.10;99.90;;;;;;5001450;28;20195;-79
2023/05/10 07:22:16;;;;;;;5.47;4.67;;;16.10;99.90;;;;;;5010359;28;20218;-79
2023/05/10 07:24:42;;;;;;;6.37;4.60;;;16.10;99.90;;;;;;5011196;28;20241;-79
2023/05/10 07:27:08;;;;;;;8.10;4.57;;;16.10;99.90;;;;;;5010664;28;20187;-79
2023/05/10 07:29:35;;;;;;;5.50;4.90;;;16.10;99.90;;;;;;5011554;28;20574;-80
2023/05/10 07:32:01;;;;;;;5.17;4.77;;;16.20;99.90;;;;;;5012009;28;20234;-79
2023/05/10 07:34:27;;;;;;;5.13;4.73;;;16.20;99.90;;;;;;5014766;28;20190;-80
2023/05/10 07:36:53;;;;;;;5.90;4.27;;;16.30;99.90;;;;;;5007225;28;20187;-80
2023/05/10 07:39:20;;;;;;;4.60;4.20;;;16.50;99.90;;;;;;5014329;28;20183;-80
2023/05/10 07:41:46;;;;;;;4.53;4.13;;;16.60;99.90;;;;;;5014468;28;20246;-79
2023/05/10 07:44:11;;;;;;;4.77;4.37;;;16.70;99.90;;;;;;5013211;28;20254;-79
2023/05/10 07:46:37;;;;;;;4.70;4.27;;;16.80;99.90;;;;;;5012185;28;20200;-80
2023/05/10 07:49:03;;;;;;;4.57;4.00;;;17.00;99.90;;;;;;5006617;28;20213;-80
2023/05/10 07:51:29;;;;;;;4.30;4.00;;;17.00;99.90;;;;;;5012278;28;20207;-80
2023/05/10 07:53:55;;;;;;;4.10;3.80;;;17.20;99.90;;;;;;4994247;28;20185;-80
2023/05/10 07:56:30;;;;;;;4.47;4.07;;;17.30;99.90;;;;;;4993977;28;20681;-80
2023/05/10 07:58:56;;;;;;;3.80;3.50;;;17.50;99.90;;;;;;5003468;28;20244;-80
2023/05/10 08:01:22;;;;;;;3.83;3.43;;;17.60;99.90;;;;;;5010223;28;20179;-81
2023/05/10 08:03:50;;;;;;;4.53;3.77;;;17.70;99.90;;;;;;4996998;28;20193;-79
2023/05/10 08:06:17;;;;;;;5.00;3.80;;;17.70;99.90;;;;;;5014117;28;20270;-80
2023/05/10 08:08:43;;;;;;;3.93;3.50;;;17.70;99.90;;;;;;5015182;28;20709;-79
2023/05/10 08:11:09;;;;;;;3.93;3.63;;;17.80;99.90;;;;;;4997039;28;20241;-79
2023/05/10 08:13:34;;;;;;;5.33;3.60;;;17.80;99.90;;;;;;5012295;28;20627;-80
2023/05/10 08:16:00;;;;;;;4.73;3.50;;;17.90;99.90;;;;;;5014995;28;20651;-80
2023/05/10 08:18:26;;;;;;;3.40;3.10;;;17.90;99.90;;;;;;5014157;28;20175;-80
2023/05/10 08:20:52;;;;;;;6.47;3.57;;;17.80;99.90;;;;;;5010713;28;20186;-80
2023/05/10 08:23:17;;;;;;;3.70;3.10;;;17.90;99.90;;;;;;5013979;28;20210;-79
2023/05/10 08:25:43;;;;;;;3.80;3.00;;;18.00;99.90;;;;;;5013471;28;20202;-79
2023/05/10 08:28:09;;;;;;;2.93;2.70;;;18.10;99.90;;;;;;5012335;28;20278;-80
2023/05/10 08:30:34;;;;;;;4.60;2.80;;;18.20;99.90;;;;;;5014411;28;20225;-80
2023/05/10 08:33:00;;;;;;;3.13;2.93;;;18.30;99.90;;;;;;5011629;28;20206;-80
2023/05/10 08:35:26;;;;;;;2.90;2.47;;;18.40;99.90;;;;;;5015732;28;20186;-80
2023/05/10 08:37:52;;;;;;;3.20;3.00;;;18.60;99.90;;;;;;5015352;28;20201;-79
2023/05/10 08:40:20;;;;;;;2.90;2.50;;;18.80;99.90;;;;;;4996499;28;20191;-79
2023/05/10 08:42:55;;;;;;;2.60;2.40;;;18.90;99.90;;;;;;5012667;28;20210;-79
2023/05/10 08:45:23;;;;;;;2.77;2.57;;;19.00;99.90;;;;;;4996813;28;20190;-80
2023/05/10 08:47:50;;;;;;;2.60;2.40;;;19.10;99.90;;;;;;5014656;28;20171;-80
2023/05/10 08:50:18;;;;;;;2.70;2.47;;;19.10;99.90;;;;;;5013501;28;20786;-80
2023/05/10 08:52:47;;;;;;;2.53;2.33;;;18.90;99.90;;;;;;4976300;28;20203;-80
2023/05/10 08:55:13;;;;;;;2.50;2.30;;;18.80;99.90;;;;;;5011109;28;20657;-80
2023/05/10 08:57:39;;;;;;;2.83;2.63;;;18.80;99.90;;;;;;5012092;28;20183;-80
2023/05/10 09:00:06;;;;;;;2.27;2.07;;;18.90;99.90;;;;;;5014749;28;20187;-80
2023/05/10 09:02:32;;;;;;;4.43;2.23;;;18.90;99.90;;;;;;5015294;28;20199;-80
2023/05/10 09:04:58;;;;;;;2.73;2.10;;;19.00;99.90;;;;;;5012519;28;20611;-80
2023/05/10 09:07:24;;;;;;;3.87;2.30;;;19.10;99.90;;;;;;5013788;28;20191;-80
2023/05/10 09:09:50;;;;;;;2.10;1.90;;;19.10;99.90;;;;;;5009556;28;20245;-80
2023/05/10 09:12:16;;;;;;;2.27;2.17;;;19.20;99.90;;;;;;4996111;28;20203;-80
2023/05/10 09:14:44;;;;;;;2.40;2.20;;;19.20;99.90;;;;;;5014887;28;20314;-80
2023/05/10 09:17:10;;;;;;;2.50;2.30;;;19.20;99.90;;;;;;5015177;28;20728;-80
2023/05/10 09:19:36;;;;;;;2.10;2.00;;;19.00;99.90;;;;;;5015059;28;20258;-80
2023/05/10 09:22:02;;;;;;;3.43;2.20;;;18.90;99.90;;;;;;5013851;28;20223;-80
2023/05/10 09:24:30;;;;;;;2.70;2.40;;;18.80;99.90;;;;;;5011553;28;20190;-81
2023/05/10 09:26:58;;;;;;;3.10;2.23;;;18.70;99.90;;;;;;5012963;28;20191;-80
2023/05/10 09:29:24;;;;;;;2.57;2.20;;;18.50;99.90;;;;;;5012120;28;20203;-80
2023/05/10 09:31:56;;;;;;;2.80;2.13;;;18.40;99.90;;;;;;4979846;28;20233;-79
2023/05/10 09:34:32;;;;;;;8.50;2.93;;;18.20;99.90;;;;;;4994274;28;20607;-80
2023/05/10 09:37:06;;;;;;;6.63;2.80;;;17.90;99.90;;;;;;5013449;28;20257;-78
2023/05/10 09:39:37;;;;;;;5.97;2.77;;;17.50;99.90;;;;;;5010771;28;20186;-81
2023/05/10 09:42:05;;;;;;;4.80;2.50;;;17.30;99.90;;;;;;4996634;28;20211;-79
2023/05/10 09:44:33;;;;;;;7.47;2.30;;;17.20;99.90;;;;;;5012722;28;20191;-80
2023/05/10 09:47:00;;;;;;;4.23;2.30;;;17.10;99.90;;;;;;5011950;28;20182;-79
2023/05/10 09:49:25;;;;;;;4.20;2.40;;;17.30;99.90;;;;;;5011224;28;20210;-79
2023/05/10 09:52:01;;;;;;;3.50;2.30;;;17.40;99.90;;;;;;5007700;28;20211;-79
2023/05/10 09:54:26;;;;;;;3.20;2.40;;;17.50;99.90;;;;;;5011614;28;20206;-79
2023/05/10 09:56:52;;;;;;;2.80;2.53;;;17.70;99.90;;;;;;5008831;28;20184;-79
2023/05/10 09:59:18;;;;;;;4.17;2.60;;;17.90;99.90;;;;;;4991926;28;20230;-79
2023/05/10 10:01:50;;;;;;;3.37;2.97;;;18.20;99.90;;;;;;4996211;28;20225;-79
2023/05/10 10:04:17;;;;;;;3.00;2.70;;;18.40;99.90;;;;;;5005226;28;20193;-78
2023/05/10 10:06:42;;;;;;;3.17;2.87;;;18.60;99.90;;;;;;4987919;28;20191;-78
2023/05/10 10:09:09;;;;;;;5.10;2.83;;;18.70;99.90;;;;;;5005988;28;20768;-79
2023/05/10 10:11:36;;;;;;;3.83;2.70;;;18.80;99.90;;;;;;5011259;28;20308;-78
2023/05/10 10:14:02;;;;;;;4.90;2.47;;;18.80;99.90;;;;;;5011572;28;20198;-79
2023/05/10 10:16:32;;;;;;;4.20;2.60;;;18.90;99.90;;;;;;5008653;28;20270;-80
2023/05/10 10:18:58;;;;;;;2.90;2.57;;;18.70;99.90;;;;;;4996624;28;20179;-80
2023/05/10 10:21:24;;;;;;;4.47;2.40;;;18.70;99.90;;;;;;5012162;28;20206;-80
2023/05/10 10:23:51;;;;;;;3.00;2.07;;;18.60;99.90;;;;;;5014924;28;20545;-78
2023/05/10 10:26:18;;;;;;;3.83;2.70;;;18.60;99.90;;;;;;5010084;28;20195;-79
2023/05/10 10:29:05;;;;;;;2.80;2.60;;;18.50;99.90;;;;;;5011713;28;20250;-77
2023/05/10 10:31:58;;;;;;;2.87;2.10;;;18.30;99.90;;;;;;5013126;28;20202;-77
2023/05/10 10:34:29;;;;;;;2.60;1.93;;;18.00;99.90;;;;;;5029632;28;20632;-76
2023/05/10 10:36:56;;;;;;;3.30;2.00;;;17.70;99.90;;;;;;5007547;28;20187;-80
2023/05/10 10:39:25;;;;;;;5.03;2.20;;;17.40;99.90;;;;;;5002471;28;20223;-76
2023/05/10 10:41:55;;;;;;;4.37;2.30;;;17.30;99.90;;;;;;5019615;28;20208;-75
2023/05/10 10:44:30;;;;;;;2.40;2.20;;;17.20;99.90;;;;;;5013848;28;20183;-76
2023/05/10 10:47:05;;;;;;;4.23;2.53;;;17.10;99.90;;;;;;5004646;28;20584;-77
2023/05/10 10:49:35;;;;;;;2.20;2.00;;;17.10;99.90;;;;;;5008228;28;20232;-75
2023/05/10 10:52:23;;;;;;;3.93;2.40;;;17.40;99.90;;;;;;5011121;28;20199;-75
2023/05/10 10:54:58;;;;;;;2.30;2.10;;;17.50;99.90;;;;;;5013374;28;20654;-75
2023/05/10 10:57:26;;;;;;;2.50;2.30;;;17.70;99.90;;;;;;5011929;28;20187;-75
2023/05/10 11:00:12;;;;;;;3.30;2.10;;;17.90;99.90;;;;;;5009025;28;20195;-76
2023/05/10 11:02:41;;;;;;;3.17;2.10;;;18.10;99.90;;;;;;5014454;28;20560;-76
2023/05/10 11:05:36;;;;;;;2.00;1.90;;;18.40;99.90;;;;;;5011760;28;20182;-75
2023/05/10 11:08:30;;;;;;;2.33;2.10;;;18.80;99.90;;;;;;5010834;28;20223;-75
2023/05/10 11:10:58;;;;;;;2.93;1.70;;;19.00;99.90;;;;;;5006554;28;20187;-78
2023/05/10 11:13:33;;;;;;;2.43;1.67;;;19.20;91.60;;;;;;5008508;28;20238;-76
2023/05/10 11:16:12;;;;;;;1.87;1.50;;;19.00;90.40;;;;;;5010230;28;20209;-76
2023/05/10 11:18:38;;;;;;;1.70;1.60;;;19.00;91.30;;;;;;5007864;28;20195;-76
2023/05/10 11:21:07;;;;;;;2.50;1.50;;;19.10;92.30;;;;;;5004876;28;20201;-76
2023/05/10 11:23:47;;;;;;;2.60;1.67;;;19.10;89.00;;;;;;5003641;28;20298;-76
2023/05/10 11:26:13;;;;;;;2.13;1.60;;;19.30;88.00;;;;;;4993822;28;20190;-76
2023/05/10 11:28:44;;;;;;;1.80;1.43;;;19.30;78.60;;;;;;5008647;28;20794;-76
2023/05/10 11:31:12;;;;;;;2.63;1.60;;;19.20;74.80;;;;;;5010893;28;20558;-76
2023/05/10 11:33:49;;;;;;;3.07;1.70;;;19.20;77.60;;;;;;5010543;28;20210;-76
2023/05/10 11:36:29;;;;;;;1.50;1.40;;;19.20;77.00;;;;;;5009803;28;20198;-76
2023/05/10 11:38:56;;;;;;;1.73;1.40;;;19.30;79.10;;;;;;5009452;28;20183;-76
2023/05/10 11:41:23;;;;;;;1.40;1.30;;;19.40;78.00;;;;;;5023664;28;20182;-76
2023/05/10 11:43:50;;;;;;;2.87;1.30;;;19.40;78.60;;;;;;5018916;28;20187;-76
2023/05/10 11:46:20;;;;;;;1.60;1.50;;;19.40;82.60;;;;;;5010186;28;20187;-76
2023/05/10 11:48:49;;;;;;;2.90;1.40;;;19.30;81.80;;;;;;5006763;28;20280;-76
2023/05/10 11:51:15;;;;;;;1.73;1.43;;;19.10;78.10;;;;;;5005666;28;20199;-76
2023/05/10 11:53:41;;;;;;;1.57;1.43;;;18.90;80.70;;;;;;5009474;28;20293;-76
2023/05/10 11:56:11;;;;;;;1.77;1.40;;;18.70;77.60;;;;;;5007912;28;20289;-76
2023/05/10 11:58:39;;;;;;;1.50;1.37;;;18.50;78.00;;;;;;5008593;28;20176;-76
2023/05/10 12:01:07;;;;;;;1.50;1.40;;;18.30;77.00;;;;;;5008695;28;20200;-76
2023/05/10 12:03:33;;;;;;;1.40;1.30;;;18.40;79.70;;;;;;5008740;28;20303;-76
2023/05/10 12:06:00;;;;;;;1.50;1.40;;;18.50;80.00;;;;;;5010414;28;20221;-76
2023/05/10 12:08:29;;;;;;;1.70;1.20;;;18.80;76.50;;;;;;5001060;28;20191;-76
2023/05/10 12:11:08;;;;;;;1.40;1.30;;;19.10;80.90;;;;;;5002200;28;20176;-77
2023/05/10 12:13:41;;;;;;;1.77;1.23;;;19.60;79.20;;;;;;5003071;28;20203;-77
2023/05/10 12:16:21;;;;;;;3.40;1.30;;;20.40;69.40;;;;;;5002761;28;20183;-76
2023/05/10 12:18:55;;;;;;;4.03;1.10;;;21.10;64.90;;;;;;5005277;28;20270;-79
2023/05/10 12:21:21;;;;;;;2.70;1.20;;;21.70;60.80;;;;;;4998623;28;20237;-75
2023/05/10 12:23:55;;;;;;;2.23;1.20;;;22.10;60.80;;;;;;5004959;28;20646;-75
2023/05/10 12:26:26;;;;;;;3.50;1.37;;;22.50;60.10;;;;;;5007993;28;20213;-78
2023/05/10 12:28:53;;;;;;;2.30;1.53;;;22.40;57.60;;;;;;5010725;28;20223;-78
2023/05/10 12:31:19;;;;;;;1.60;1.37;;;22.10;59.00;;;;;;5011263;28;20191;-79
2023/05/10 12:33:46;;;;;;;1.50;1.03;;;21.70;58.50;;;;;;5007164;28;20192;-78
2023/05/10 12:36:16;;;;;;;3.10;1.20;;;21.50;59.50;;;;;;5008592;28;20598;-78
2023/05/10 12:38:44;;;;;;;1.47;1.10;;;21.50;60.60;;;;;;4991418;28;20192;-78
2023/05/10 12:41:11;;;;;;;3.23;1.40;;;21.30;60.70;;;;;;5008580;28;20671;-77
2023/05/10 12:43:38;;;;;;;2.10;1.40;;;21.20;61.40;;;;;;5007882;28;20278;-79
2023/05/10 12:46:14;;;;;;;1.20;1.10;;;21.00;61.20;;;;;;5010669;28;20623;-78
2023/05/10 12:48:42;;;;;;;1.73;1.20;;;20.70;62.60;;;;;;5016350;28;20190;-79
2023/05/10 12:51:09;;;;;;;1.40;1.30;;;;;;;;;;5020509;28;20238;-78
2023/05/10 12:53:36;;;;;;;4.67;1.40;;;;;;;;;;5014602;28;20210;-78